createdAt,value
2023-03-23T15:59:13.978Z,45.32
2023-03-23T16:01:44.993Z,46.09
2023-03-23T16:04:16.700Z,46.15
2023-03-23T16:06:46.721Z,46.77
2023-03-23T16:09:17.116Z,47.46
2023-03-23T16:11:45.573Z,47.35
2023-03-23T16:14:14.432Z,47.89
2023-03-23T16:16:50.293Z,48.53
2023-03-23T16:19:20.929Z,49.17
2023-03-23T16:21:50.766Z,48.86
2023-03-23T16:24:18.993Z,49.02
2023-03-23T16:26:47.323Z,49.26
2023-03-23T16:29:29.049Z,49.23
2023-03-23T16:32:06.819Z,49.86
2023-03-23T16:34:35.728Z,49.29
2023-03-23T16:37:06.910Z,49.14
2023-03-23T16:39:35.245Z,48.78
2023-03-23T16:42:03.527Z,48.27
2023-03-23T16:44:31.780Z,48.10
2023-03-23T16:47:00.323Z,48.55
2023-03-23T16:49:28.477Z,48.75
2023-03-23T16:51:56.701Z,49.40
2023-03-23T16:54:26.524Z,50.23
2023-03-23T16:56:54.706Z,50.66
2023-03-23T16:59:22.941Z,51.31
2023-03-23T17:01:51.997Z,51.85
2023-03-23T17:04:20.343Z,52.13
2023-03-23T17:06:49.152Z,53.12
2023-03-23T17:09:17.976Z,53.35
2023-03-23T17:11:47.583Z,53.91
2023-03-23T17:14:16.387Z,54.62
2023-03-23T17:16:44.865Z,55.31
2023-03-23T17:19:14.157Z,56.19
2023-03-23T17:21:42.842Z,57.23
2023-03-23T17:24:11.350Z,58.21
2023-03-23T17:26:39.520Z,58.88
2023-03-23T17:29:09.203Z,59.57
2023-03-23T17:31:37.921Z,60.15
2023-03-23T17:34:06.184Z,60.79
2023-03-23T17:36:34.370Z,61.42
2023-03-23T17:39:02.966Z,62.22
2023-03-23T17:41:31.148Z,62.70
2023-03-23T17:43:59.520Z,63.64
2023-03-23T17:46:29.650Z,64.62
2023-03-23T17:48:57.757Z,64.95
2023-03-23T17:51:26.018Z,65.31
2023-03-23T17:53:54.296Z,65.90
2023-03-23T17:56:22.541Z,66.75
2023-03-23T17:58:50.808Z,67.30
2023-03-23T18:01:19.448Z,67.80
2023-03-23T18:03:49.049Z,68.23
2023-03-23T18:06:17.286Z,68.56
2023-03-23T18:08:45.705Z,69.02
2023-03-23T18:11:13.837Z,69.44
2023-03-23T18:13:42.088Z,70.30
2023-03-23T18:16:11.210Z,70.41
2023-03-23T18:18:39.521Z,71.32
2023-03-23T18:21:11.417Z,71.99
2023-03-23T18:23:49.386Z,72.13
2023-03-23T18:26:25.063Z,72.11
2023-03-23T18:28:53.553Z,72.95
2023-03-23T18:31:22.110Z,73.83
2023-03-23T18:33:51.874Z,74.36
2023-03-23T18:36:26.008Z,74.41
2023-03-23T18:38:57.532Z,75.10
2023-03-23T18:41:26.760Z,75.14
2023-03-23T18:43:56.347Z,76.27
2023-03-23T18:46:26.010Z,76.68
2023-03-23T18:48:54.513Z,77.38
2023-03-23T18:51:26.178Z,77.57
2023-03-23T18:53:54.525Z,77.93
2023-03-23T18:56:22.898Z,78.50
2023-03-23T18:58:53.184Z,79.44
2023-03-23T19:01:21.717Z,80.23
2023-03-23T19:03:50.419Z,80.59
2023-03-23T19:06:20.475Z,80.86
2023-03-23T19:08:52.027Z,81.39
2023-03-23T19:11:21.965Z,81.67
2023-03-23T19:14:00.362Z,82.18
2023-03-23T19:16:29.521Z,82.06
2023-03-23T19:18:57.725Z,82.48
2023-03-23T19:21:29.906Z,82.65
2023-03-23T19:24:02.131Z,83.16
2023-03-23T19:26:34.873Z,83.51
2023-03-23T19:31:39.103Z,84.27
2023-03-23T19:34:08.882Z,84.75
2023-03-23T19:36:38.030Z,84.92
2023-03-23T19:39:08.942Z,85.61
2023-03-23T19:41:37.678Z,85.75
2023-03-23T19:44:06.904Z,86.27
2023-03-23T19:46:35.896Z,86.59
2023-03-23T19:49:05.048Z,86.64
2023-03-23T19:51:33.225Z,86.90
2023-03-23T19:54:01.686Z,87.48
2023-03-23T19:56:32.696Z,88.12
2023-03-23T19:59:01.094Z,88.90
2023-03-23T20:01:29.547Z,89.59
2023-03-23T20:04:00.119Z,90.00
2023-03-23T20:06:29.609Z,90.23
2023-03-23T20:09:00.005Z,90.44
2023-03-23T20:11:30.954Z,91.05
2023-03-23T20:14:00.758Z,91.12
2023-03-23T20:16:29.285Z,91.96
2023-03-23T20:19:00.197Z,91.87
2023-03-23T20:21:29.585Z,91.67
2023-03-23T20:23:59.489Z,91.91
2023-03-23T20:26:32.254Z,91.69
2023-03-23T20:29:00.935Z,92.06
2023-03-23T20:31:30.876Z,92.67
2023-03-23T20:34:02.761Z,92.41
2023-03-23T20:36:35.123Z,92.04
2023-03-23T20:39:05.692Z,92.03
2023-03-23T20:41:36.894Z,91.97
2023-03-23T20:44:06.040Z,92.94
2023-03-23T20:46:34.353Z,92.99
2023-03-23T20:49:03.484Z,93.74
2023-03-23T20:51:32.943Z,93.42
2023-03-23T20:54:02.162Z,93.65
2023-03-23T20:56:30.663Z,94.02
2023-03-23T20:59:00.584Z,94.30
2023-03-23T21:01:29.021Z,94.06
2023-03-23T21:04:00.662Z,94.58
2023-03-23T21:06:29.234Z,94.63
2023-03-23T21:08:58.151Z,94.35
2023-03-23T21:11:28.188Z,94.48
2023-03-23T21:13:57.063Z,95.09
2023-03-23T21:16:26.742Z,94.42
2023-03-23T21:18:55.540Z,94.68
2023-03-23T21:21:24.384Z,94.64
2023-03-23T21:23:53.290Z,93.84
2023-03-23T21:26:24.096Z,94.69
2023-03-23T21:28:54.230Z,94.61
2023-03-23T21:31:25.580Z,94.92
2023-03-23T21:33:55.129Z,94.60
2023-03-23T21:36:24.797Z,94.30
2023-03-23T21:38:53.222Z,94.83
2023-03-23T21:41:21.664Z,94.63
2023-03-23T21:43:50.285Z,94.07
2023-03-23T21:46:19.363Z,94.67
2023-03-23T21:48:51.416Z,93.97
2023-03-23T21:51:25.079Z,94.17
2023-03-23T21:53:55.301Z,94.31
2023-03-23T21:56:25.588Z,94.14
2023-03-23T21:58:53.858Z,93.80
2023-03-23T22:01:22.389Z,93.67
2023-03-23T22:03:51.575Z,93.01
2023-03-23T22:06:26.272Z,93.28
2023-03-23T22:08:55.329Z,93.24
2023-03-23T22:11:25.527Z,92.22
2023-03-23T22:13:54.621Z,92.55
2023-03-23T22:16:23.730Z,92.83
2023-03-23T22:18:54.080Z,92.43
2023-03-23T22:21:26.170Z,91.67
2023-03-23T22:23:55.939Z,91.58
2023-03-23T22:26:24.600Z,92.08
2023-03-23T22:28:52.948Z,91.84
2023-03-23T22:31:23.668Z,91.50
2023-03-23T22:33:55.221Z,91.49
2023-03-23T22:36:26.615Z,91.36
2023-03-23T22:38:56.497Z,91.24
2023-03-23T22:41:28.287Z,90.96
2023-03-23T22:43:56.931Z,91.15
2023-03-23T22:46:25.766Z,90.93
2023-03-23T22:48:54.304Z,91.10
2023-03-23T22:51:24.745Z,89.80
2023-03-23T22:53:52.978Z,90.36
2023-03-23T22:56:21.754Z,90.42
2023-03-23T22:58:50.523Z,90.06
2023-03-23T23:01:21.206Z,89.88
2023-03-23T23:03:50.229Z,89.60
2023-03-23T23:06:19.310Z,89.30
2023-03-23T23:08:49.859Z,89.46
2023-03-23T23:11:19.621Z,88.60
2023-03-23T23:13:48.395Z,88.33
2023-03-23T23:16:18.201Z,88.12
2023-03-23T23:18:47.816Z,87.54
2023-03-23T23:21:22.037Z,87.99
2023-03-23T23:23:52.166Z,86.92
2023-03-23T23:26:20.940Z,86.73
2023-03-23T23:28:50.000Z,86.28
2023-03-23T23:31:26.559Z,85.19
2023-03-23T23:33:55.952Z,84.45
2023-03-23T23:36:27.741Z,84.57
2023-03-23T23:38:57.705Z,83.79
2023-03-23T23:41:26.077Z,83.94
2023-03-23T23:43:54.263Z,83.71
2023-03-23T23:46:22.877Z,83.00
2023-03-23T23:48:51.274Z,82.96
2023-03-23T23:51:19.954Z,83.01
2023-03-23T23:53:53.445Z,82.99
2023-03-23T23:56:23.774Z,83.08
2023-03-23T23:58:52.653Z,82.59
